createdAt,value
2018-08-09T00:01:23.819Z,34.80
2018-08-09T00:03:51.233Z,24.10
2018-08-09T00:06:18.594Z,20.87
2018-08-09T00:08:46.614Z,22.07
2018-08-09T00:11:14.073Z,25.00
2018-08-09T00:13:41.520Z,20.80
2018-08-09T00:16:08.850Z,22.33
2018-08-09T00:18:37.124Z,22.57
2018-08-09T00:21:04.694Z,20.00
2018-08-09T00:23:32.160Z,20.87
2018-08-09T00:25:59.653Z,22.20
2018-08-09T00:28:27.368Z,19.53
2018-08-09T00:30:54.907Z,18.20
2018-08-09T00:33:22.297Z,18.30
2018-08-09T00:35:50.937Z,19.97
2018-08-09T00:38:18.336Z,20.40
2018-08-09T00:40:46.161Z,19.23
2018-08-09T00:43:14.634Z,20.50
2018-08-09T00:45:42.008Z,21.30
2018-08-09T00:48:09.432Z,20.30
2018-08-09T00:50:36.866Z,19.17
2018-08-09T00:53:04.835Z,19.93
2018-08-09T00:55:32.153Z,23.17
2018-08-09T00:57:59.491Z,19.27
2018-08-09T01:00:26.837Z,20.20
2018-08-09T01:02:54.273Z,18.53
2018-08-09T01:05:22.618Z,20.13
2018-08-09T01:07:49.979Z,18.90
2018-08-09T01:10:17.326Z,19.40
2018-08-09T01:12:44.730Z,19.03
2018-08-09T01:15:12.212Z,18.20
2018-08-09T01:17:40.284Z,19.17
2018-08-09T01:20:07.815Z,19.80
2018-08-09T01:22:35.579Z,19.60
2018-08-09T01:25:03.339Z,18.93
2018-08-09T01:27:30.681Z,19.37
2018-08-09T01:29:58.253Z,18.55
2018-08-09T01:32:25.633Z,19.67
2018-08-09T01:34:53.038Z,19.83
2018-08-09T01:37:20.346Z,19.40
2018-08-09T01:39:47.718Z,19.57
2018-08-09T01:42:20.858Z,19.30
2018-08-09T01:44:48.408Z,19.90
2018-08-09T01:47:15.774Z,18.60
2018-08-09T01:59:28.118Z,19.30
2018-08-09T02:01:56.556Z,19.50
2018-08-09T02:04:24.030Z,19.25
2018-08-09T02:06:52.188Z,19.70
2018-08-09T02:09:24.868Z,20.00
2018-08-09T02:11:52.319Z,20.27
2018-08-09T02:14:19.630Z,19.15
2018-08-09T02:16:46.984Z,19.82
2018-08-09T02:19:14.594Z,19.33
2018-08-09T02:21:41.967Z,21.52
2018-08-09T02:24:09.370Z,19.20
2018-08-09T02:29:03.529Z,19.92
2018-08-09T02:31:31.196Z,19.50
2018-08-09T02:33:58.527Z,20.70
2018-08-09T02:36:26.648Z,18.70
2018-08-09T02:38:54.469Z,21.33
2018-08-09T02:41:21.945Z,19.87
2018-08-09T02:43:49.533Z,21.80
2018-08-09T02:46:17.247Z,18.40
2018-08-09T02:48:44.750Z,19.03
2018-08-09T02:51:12.093Z,20.30
2018-08-09T02:53:39.424Z,18.30
2018-08-09T02:56:06.758Z,21.93
2018-08-09T02:58:35.086Z,17.67
2018-08-09T03:01:02.492Z,18.60
2018-08-09T03:03:29.818Z,18.17
2018-08-09T03:05:57.116Z,18.37
2018-08-09T03:08:24.534Z,20.70
2018-08-09T03:10:52.567Z,17.50
2018-08-09T03:13:20.367Z,18.30
2018-08-09T03:15:47.699Z,17.50
2018-08-09T03:18:15.063Z,18.07
2018-08-09T03:20:42.875Z,18.00
2018-08-09T03:23:14.080Z,19.53
2018-08-09T03:25:41.453Z,18.47
2018-08-09T03:28:09.472Z,18.10
2018-08-09T03:30:36.789Z,18.47
2018-08-09T03:33:04.280Z,17.40
2018-08-09T03:35:31.628Z,17.90
2018-08-09T03:37:58.938Z,19.57
2018-08-09T03:40:26.314Z,19.33
2018-08-09T03:42:53.642Z,19.00
2018-08-09T03:45:21.192Z,18.00
2018-08-09T03:47:48.627Z,18.10
2018-08-09T03:50:16.646Z,19.00
2018-08-09T03:52:44.019Z,19.37
2018-08-09T03:55:12.142Z,18.57
2018-08-09T03:57:45.942Z,19.00
2018-08-09T04:00:13.463Z,21.13
2018-08-09T04:02:40.793Z,19.67
2018-08-09T04:05:09.015Z,18.57
2018-08-09T04:07:36.382Z,20.70
2018-08-09T04:10:04.205Z,19.87
2018-08-09T04:12:31.586Z,20.67
2018-08-09T04:14:59.627Z,20.77
2018-08-09T04:17:26.993Z,21.63
2018-08-09T04:19:54.442Z,23.77
2018-08-09T04:22:22.799Z,21.83
2018-08-09T04:24:50.335Z,24.73
2018-08-09T04:27:18.254Z,20.30
2018-08-09T04:29:46.447Z,20.97
2018-08-09T04:32:18.375Z,20.60
2018-08-09T04:34:45.825Z,19.80
2018-08-09T04:37:13.218Z,19.60
2018-08-09T04:39:40.724Z,20.90
2018-08-09T04:42:08.094Z,21.10
2018-08-09T04:44:36.068Z,20.70
2018-08-09T04:47:03.496Z,20.60
2018-08-09T04:49:30.793Z,20.97
2018-08-09T04:51:58.817Z,19.70
2018-08-09T04:54:26.346Z,19.37
2018-08-09T04:56:53.692Z,24.43
2018-08-09T04:59:20.973Z,22.93
2018-08-09T05:01:52.404Z,22.50
2018-08-09T05:04:19.778Z,22.13
2018-08-09T05:06:47.063Z,23.10
2018-08-09T05:09:14.341Z,22.07
2018-08-09T05:11:42.672Z,25.00
2018-08-09T05:14:10.345Z,21.30
2018-08-09T05:16:37.957Z,20.20
2018-08-09T05:19:05.548Z,22.50
2018-08-09T05:21:32.862Z,20.53
2018-08-09T05:24:00.791Z,23.83
2018-08-09T05:26:28.191Z,25.30
2018-08-09T05:28:55.501Z,22.10
2018-08-09T05:31:22.794Z,22.10
2018-08-09T05:33:50.125Z,21.00
2018-08-09T05:36:17.395Z,23.70
2018-08-09T05:38:44.716Z,23.73
2018-08-09T05:41:12.850Z,23.83
2018-08-09T05:43:40.395Z,24.23
2018-08-09T05:46:08.031Z,21.33
2018-08-09T05:48:35.338Z,23.00
2018-08-09T05:51:03.150Z,22.80
2018-08-09T05:53:30.435Z,23.40
2018-08-09T05:55:57.744Z,23.20
2018-08-09T05:58:25.120Z,22.10
2018-08-09T06:00:52.445Z,25.27
2018-08-09T06:03:19.861Z,28.53
2018-08-09T06:05:47.179Z,23.30
2018-08-09T06:08:14.457Z,23.90
2018-08-09T06:10:41.847Z,27.43
2018-08-09T06:13:09.833Z,24.43
2018-08-09T06:15:37.348Z,26.33
2018-08-09T06:18:05.173Z,25.50
2018-08-09T06:20:32.500Z,23.17
2018-08-09T06:22:59.806Z,25.47
2018-08-09T06:25:27.108Z,28.20
2018-08-09T06:27:54.716Z,26.23
2018-08-09T06:30:22.059Z,24.50
2018-08-09T06:32:49.569Z,26.67
2018-08-09T06:35:17.034Z,31.27
2018-08-09T06:37:44.408Z,26.57
2018-08-09T06:40:13.125Z,26.03
2018-08-09T06:42:41.226Z,27.50
2018-08-09T06:45:08.556Z,25.60
2018-08-09T06:47:36.119Z,25.80
2018-08-09T06:50:03.556Z,27.97
2018-08-09T06:52:31.466Z,29.10
2018-08-09T06:54:58.772Z,27.20
2018-08-09T06:57:26.126Z,28.20
2018-08-09T06:59:53.481Z,26.87
2018-08-09T07:02:20.843Z,27.07
2018-08-09T07:04:48.209Z,30.00
2018-08-09T07:07:16.071Z,28.40
2018-08-09T07:09:43.370Z,26.57
2018-08-09T07:12:10.745Z,27.70
2018-08-09T07:14:38.377Z,31.53
2018-08-09T07:17:05.694Z,32.77
2018-08-09T07:19:33.054Z,30.13
2018-08-09T07:22:00.350Z,33.93
2018-08-09T07:24:27.803Z,31.03
2018-08-09T07:26:55.192Z,29.97
2018-08-09T07:29:22.526Z,29.77
2018-08-09T07:31:50.502Z,34.57
2018-08-09T07:34:17.799Z,35.87
2018-08-09T07:36:45.132Z,37.00
2018-08-09T07:39:12.467Z,34.60
2018-08-09T07:41:40.603Z,37.70
2018-08-09T07:44:08.057Z,38.10
2018-08-09T07:46:35.550Z,39.37
2018-08-09T07:49:03.276Z,36.40
2018-08-09T07:51:30.774Z,43.40
2018-08-09T07:53:58.398Z,43.73
2018-08-09T07:56:25.818Z,37.20
2018-08-09T07:58:53.174Z,36.10
2018-08-09T08:01:20.611Z,37.47
2018-08-09T08:03:47.986Z,36.10
2018-08-09T08:06:15.370Z,33.60
2018-08-09T08:08:42.906Z,37.50
2018-08-09T08:11:10.260Z,37.60
2018-08-09T08:13:37.563Z,36.13
2018-08-09T08:16:04.979Z,39.00
2018-08-09T08:18:32.422Z,35.77
2018-08-09T08:20:59.747Z,39.17
2018-08-09T08:23:27.241Z,38.90
2018-08-09T08:25:54.570Z,39.30
2018-08-09T08:28:21.985Z,35.80
2018-08-09T08:30:49.346Z,37.90
2018-08-09T08:33:16.656Z,34.73
2018-08-09T08:35:44.054Z,38.50
2018-08-09T08:38:11.487Z,40.10
2018-08-09T08:40:38.817Z,40.00
2018-08-09T08:43:06.183Z,37.90
2018-08-09T08:45:33.675Z,38.70
2018-08-09T08:48:01.855Z,38.70
2018-08-09T08:50:29.146Z,37.73
2018-08-09T08:52:56.502Z,37.90
2018-08-09T08:55:23.802Z,37.13
2018-08-09T08:57:51.143Z,38.03
2018-08-09T09:00:18.519Z,35.00
2018-08-09T09:02:45.840Z,38.20
2018-08-09T09:05:13.433Z,35.57
2018-08-09T09:07:40.809Z,38.73
2018-08-09T09:10:09.579Z,37.97
2018-08-09T09:12:37.172Z,38.70
2018-08-09T09:15:06.834Z,42.00
2018-08-09T09:17:34.833Z,35.80
2018-08-09T09:20:02.447Z,38.80
2018-08-09T09:22:29.911Z,35.77
2018-08-09T09:24:57.255Z,34.47
2018-08-09T09:27:24.594Z,34.40
2018-08-09T09:29:52.194Z,37.07
2018-08-09T09:32:19.585Z,36.97
2018-08-09T09:34:47.243Z,40.33
2018-08-09T09:37:14.710Z,35.67
2018-08-09T09:39:42.017Z,38.50
2018-08-09T09:42:10.386Z,37.50
2018-08-09T09:44:38.346Z,50.37
2018-08-09T09:47:05.648Z,40.07
2018-08-09T09:49:32.962Z,39.73
2018-08-09T09:52:00.257Z,40.90
2018-08-09T09:54:27.673Z,42.03
2018-08-09T09:56:55.015Z,41.67
2018-08-09T09:59:22.313Z,39.60
2018-08-09T10:01:49.815Z,40.53
2018-08-09T10:04:17.199Z,39.13
2018-08-09T10:06:46.150Z,37.43
2018-08-09T10:09:14.296Z,37.90
2018-08-09T10:11:41.734Z,39.87
2018-08-09T10:14:09.089Z,39.83
2018-08-09T10:16:36.843Z,39.83
2018-08-09T10:19:04.199Z,35.07
2018-08-09T10:21:33.016Z,36.50
2018-08-09T10:24:04.862Z,38.67
2018-08-09T10:26:38.069Z,36.53
2018-08-09T10:29:07.022Z,34.70
2018-08-09T10:31:35.517Z,35.90
2018-08-09T10:34:03.791Z,35.27
2018-08-09T10:36:35.811Z,34.57
2018-08-09T10:39:05.157Z,36.40
2018-08-09T10:41:33.359Z,35.10
2018-08-09T10:44:05.814Z,38.07
2018-08-09T10:46:33.246Z,36.00
2018-08-09T10:49:01.129Z,37.00
2018-08-09T10:51:33.518Z,34.63
2018-08-09T10:54:00.862Z,37.70
2018-08-09T10:56:28.620Z,37.33
2018-08-09T10:58:56.662Z,37.30
2018-08-09T11:01:24.219Z,37.43
2018-08-09T11:03:52.703Z,39.70
2018-08-09T11:06:20.520Z,38.37
2018-08-09T11:08:49.131Z,35.87
2018-08-09T11:11:23.347Z,34.23
2018-08-09T11:13:51.082Z,33.27
2018-08-09T11:16:22.933Z,35.83
2018-08-09T11:18:51.743Z,35.70
2018-08-09T11:21:24.503Z,36.70
2018-08-09T11:23:53.828Z,33.87
2018-08-09T11:26:21.294Z,34.93
2018-08-09T11:28:50.435Z,34.27
2018-08-09T11:31:17.908Z,32.17
2018-08-09T11:33:46.430Z,29.97
2018-08-09T11:36:13.864Z,27.03
2018-08-09T11:38:41.259Z,27.70
2018-08-09T11:41:11.651Z,27.47
2018-08-09T11:43:39.065Z,25.53
2018-08-09T11:46:06.587Z,32.40
2018-08-09T11:48:34.111Z,31.63
2018-08-09T11:51:01.795Z,30.23
2018-08-09T11:53:29.795Z,28.77
2018-08-09T11:55:57.595Z,27.13
2018-08-09T11:58:25.536Z,27.73
2018-08-09T12:00:55.267Z,25.80
2018-08-09T12:03:23.008Z,26.20
2018-08-09T12:05:50.407Z,25.17
2018-08-09T12:08:17.855Z,29.23
2018-08-09T12:10:45.306Z,26.20
2018-08-09T12:13:13.022Z,26.73
2018-08-09T12:15:45.309Z,28.40
2018-08-09T12:18:12.901Z,24.50
2018-08-09T12:20:40.773Z,24.43
2018-08-09T12:23:08.335Z,24.03
2018-08-09T12:25:35.865Z,25.10
2018-08-09T12:28:03.275Z,22.83
2018-08-09T12:30:30.660Z,25.80
2018-08-09T12:32:58.014Z,26.43
2018-08-09T12:35:25.362Z,24.07
2018-08-09T12:37:52.847Z,25.53
2018-08-09T12:40:20.203Z,23.83
2018-08-09T12:42:47.532Z,24.23
2018-08-09T12:45:15.024Z,23.07
2018-08-09T12:47:42.338Z,22.70
2018-08-09T12:50:13.201Z,21.87
2018-08-09T12:52:41.774Z,24.07
2018-08-09T12:55:09.799Z,23.20
2018-08-09T12:57:37.276Z,24.37
2018-08-09T13:00:05.569Z,22.90
2018-08-09T13:02:32.893Z,25.30
2018-08-09T13:05:00.954Z,26.40
2018-08-09T13:07:28.267Z,26.40
2018-08-09T13:09:56.085Z,22.43
2018-08-09T13:12:23.443Z,23.03
2018-08-09T13:14:50.774Z,24.40
2018-08-09T13:17:18.886Z,23.37
2018-08-09T13:19:46.256Z,24.57
2018-08-09T13:22:13.763Z,22.60
2018-08-09T13:24:41.348Z,20.93
2018-08-09T13:27:08.650Z,23.63
2018-08-09T13:29:36.260Z,22.90
2018-08-09T13:32:03.621Z,24.17
2018-08-09T13:34:30.967Z,23.37
2018-08-09T13:36:58.284Z,22.10
2018-08-09T13:39:26.490Z,21.07
2018-08-09T13:41:54.532Z,22.90
2018-08-09T13:44:21.827Z,22.10
2018-08-09T13:46:49.160Z,25.13
2018-08-09T13:49:16.534Z,23.73
2018-08-09T13:51:43.831Z,24.60
2018-08-09T13:54:11.657Z,22.80
2018-08-09T13:56:38.970Z,21.10
2018-08-09T13:59:06.347Z,26.13
2018-08-09T14:01:33.754Z,20.97
2018-08-09T14:04:01.182Z,19.70
2018-08-09T14:06:29.058Z,24.03
2018-08-09T14:08:56.375Z,21.70
2018-08-09T14:11:23.687Z,21.20
2018-08-09T14:13:51.522Z,20.30
2018-08-09T14:16:18.923Z,21.83
2018-08-09T14:18:46.292Z,19.63
2018-08-09T14:21:14.270Z,23.87
2018-08-09T14:23:41.574Z,26.90
2018-08-09T14:26:08.992Z,28.47
2018-08-09T14:28:36.334Z,27.20
2018-08-09T14:31:03.763Z,25.27
2018-08-09T14:33:31.147Z,23.63
2018-08-09T14:35:58.439Z,27.63
2018-08-09T14:38:25.830Z,23.77
2018-08-09T14:40:53.159Z,23.40
2018-08-09T14:43:20.626Z,25.60
2018-08-09T14:45:48.526Z,22.87
2018-08-09T14:48:16.001Z,23.73
2018-08-09T14:50:43.455Z,21.70
2018-08-09T14:53:10.854Z,24.43
2018-08-09T14:55:38.895Z,21.40
2018-08-09T14:58:06.280Z,21.33
2018-08-09T15:00:34.193Z,26.97
2018-08-09T15:03:02.986Z,22.47
2018-08-09T15:05:30.271Z,22.17
2018-08-09T15:07:57.617Z,22.77
2018-08-09T15:10:24.943Z,25.00
2018-08-09T15:12:52.280Z,24.93
2018-08-09T15:15:19.906Z,22.00
2018-08-09T15:17:47.267Z,22.03
2018-08-09T15:20:14.750Z,21.00
2018-08-09T15:22:42.291Z,21.70
2018-08-09T15:25:10.160Z,22.40
2018-08-09T15:27:37.616Z,22.10
2018-08-09T15:30:07.922Z,21.40
2018-08-09T15:32:35.235Z,22.90
2018-08-09T15:35:02.632Z,19.63
2018-08-09T15:37:30.050Z,21.87
2018-08-09T15:39:57.391Z,20.77
2018-08-09T15:42:27.545Z,19.37
2018-08-09T15:44:55.967Z,20.27
2018-08-09T15:47:23.873Z,19.37
2018-08-09T15:49:51.151Z,20.70
2018-08-09T15:52:18.533Z,20.90
2018-08-09T15:54:45.866Z,19.73
2018-08-09T15:57:13.270Z,19.13
2018-08-09T15:59:40.664Z,19.67
2018-08-09T16:02:08.033Z,19.90
2018-08-09T16:04:35.363Z,18.90
2018-08-09T16:07:02.751Z,18.60
2018-08-09T16:09:30.206Z,21.30
2018-08-09T16:11:57.638Z,18.50
2018-08-09T16:14:25.470Z,19.37
2018-08-09T16:16:52.850Z,21.73
2018-08-09T16:19:20.217Z,23.53
2018-08-09T16:21:47.508Z,19.60
2018-08-09T16:24:14.874Z,19.90
2018-08-09T16:26:42.199Z,20.20
2018-08-09T16:29:09.666Z,21.93
2018-08-09T16:31:37.048Z,21.57
2018-08-09T16:34:04.425Z,20.07
2018-08-09T16:36:31.706Z,19.80
2018-08-09T16:38:59.063Z,21.20
2018-08-09T16:41:26.718Z,19.13
2018-08-09T16:43:54.054Z,20.57
2018-08-09T16:46:21.369Z,21.13
2018-08-09T16:48:48.704Z,18.90
2018-08-09T16:51:16.043Z,21.30
2018-08-09T16:53:43.567Z,20.00
2018-08-09T16:56:10.904Z,20.60
2018-08-09T16:58:38.260Z,23.23
2018-08-09T17:01:05.638Z,19.60
2018-08-09T17:03:32.983Z,21.00
2018-08-09T17:06:00.354Z,19.77
2018-08-09T17:08:27.846Z,20.37
2018-08-09T17:10:55.254Z,22.00
2018-08-09T17:13:22.569Z,20.37
2018-08-09T17:15:50.609Z,20.23
2018-08-09T17:18:17.910Z,20.63
2018-08-09T17:20:45.315Z,19.10
2018-08-09T17:23:12.694Z,21.90
2018-08-09T17:25:40.108Z,19.53
2018-08-09T17:28:07.366Z,20.50
2018-08-09T17:30:34.808Z,20.83
2018-08-09T17:33:03.025Z,21.20
2018-08-09T17:35:30.354Z,20.37
2018-08-09T17:37:57.634Z,24.83
2018-08-09T17:40:28.369Z,20.63
2018-08-09T17:42:56.597Z,20.90
2018-08-09T17:45:25.028Z,19.13
2018-08-09T17:47:52.484Z,19.60
2018-08-09T17:50:19.828Z,18.87
2018-08-09T17:52:47.154Z,18.07
2018-08-09T17:55:15.237Z,21.43
2018-08-09T17:57:43.292Z,19.47
2018-08-09T18:00:30.096Z,18.97
2018-08-09T18:02:57.487Z,23.03
2018-08-09T18:05:24.845Z,17.60
2018-08-09T18:07:52.660Z,19.27
2018-08-09T18:10:22.795Z,20.80
2018-08-09T18:12:50.295Z,21.23
2018-08-09T18:15:18.063Z,20.50
2018-08-09T18:17:45.458Z,18.80
2018-08-09T18:20:14.595Z,17.53
2018-08-09T18:22:42.508Z,17.73
2018-08-09T18:25:11.285Z,19.00
2018-08-09T18:27:40.841Z,18.10
2018-08-09T18:30:09.477Z,18.90
2018-08-09T18:32:37.146Z,17.57
2018-08-09T18:35:05.010Z,18.30
2018-08-09T18:37:32.311Z,20.17
2018-08-09T18:39:59.718Z,17.80
2018-08-09T18:42:27.140Z,18.23
2018-08-09T18:44:54.666Z,18.13
2018-08-09T18:47:22.140Z,19.10
2018-08-09T18:49:57.544Z,19.03
2018-08-09T18:52:25.666Z,19.77
2018-08-09T18:54:53.427Z,19.53
2018-08-09T18:57:20.930Z,18.63
2018-08-09T18:59:48.372Z,17.50
2018-08-09T19:02:15.839Z,20.63
2018-08-09T19:04:43.232Z,19.07
2018-08-09T19:07:10.605Z,17.80
2018-08-09T19:09:37.970Z,19.67
2018-08-09T19:12:09.927Z,18.07
2018-08-09T19:14:37.738Z,18.43
2018-08-09T19:17:05.134Z,18.30
2018-08-09T19:19:33.857Z,20.03
2018-08-09T19:22:07.009Z,19.90
2018-08-09T19:24:34.579Z,18.53
2018-08-09T19:27:06.424Z,20.53
2018-08-09T19:29:34.361Z,18.80
2018-08-09T19:32:02.591Z,18.20
2018-08-09T19:34:32.566Z,19.80
2018-08-09T19:37:00.047Z,20.27
2018-08-09T19:39:28.504Z,17.30
2018-08-09T19:41:56.010Z,18.07
2018-08-09T19:44:23.478Z,17.40
2018-08-09T19:46:51.518Z,17.30
2018-08-09T19:49:18.911Z,17.97
2018-08-09T19:51:46.467Z,18.53
2018-08-09T19:54:14.330Z,18.77
2018-08-09T19:56:41.794Z,17.57
2018-08-09T19:59:09.431Z,17.13
2018-08-09T20:01:37.598Z,18.47
2018-08-09T20:04:05.448Z,17.30
2018-08-09T20:06:33.046Z,16.80
2018-08-09T20:09:00.591Z,17.90
2018-08-09T20:11:28.279Z,17.50
2018-08-09T20:13:55.827Z,18.20
2018-08-09T20:16:27.627Z,18.37
2018-08-09T20:18:56.659Z,17.30
2018-08-09T20:21:24.135Z,17.90
2018-08-09T20:23:51.630Z,17.10
2018-08-09T20:26:19.143Z,18.00
2018-08-09T20:28:47.387Z,19.33
2018-08-09T20:31:14.844Z,18.27
2018-08-09T20:33:42.395Z,18.77
2018-08-09T20:36:09.988Z,17.87
2018-08-09T20:38:37.832Z,17.33
2018-08-09T20:41:05.367Z,17.60
2018-08-09T20:43:32.917Z,16.87
2018-08-09T20:46:00.392Z,19.50
2018-08-09T20:48:27.836Z,18.40
2018-08-09T20:50:55.343Z,18.00
2018-08-09T20:53:23.160Z,18.32
2018-08-09T20:55:50.663Z,18.20
2018-08-09T20:58:19.091Z,18.57
2018-08-09T21:00:46.516Z,16.97
2018-08-09T21:03:13.980Z,18.40
2018-08-09T21:05:41.450Z,18.80
2018-08-09T21:08:09.375Z,18.10
2018-08-09T21:10:36.797Z,17.70
2018-08-09T21:13:04.268Z,17.97
2018-08-09T21:15:32.704Z,17.97
2018-08-09T21:18:00.776Z,17.95
2018-08-09T21:20:28.927Z,18.00
2018-08-09T21:22:57.237Z,18.77
2018-08-09T21:25:24.698Z,18.00
2018-08-09T21:27:52.247Z,17.70
2018-08-09T21:30:22.340Z,17.27
2018-08-09T21:32:50.687Z,18.20
2018-08-09T21:35:18.885Z,18.50
2018-08-09T21:37:46.668Z,17.90
2018-08-09T21:40:14.717Z,18.63
2018-08-09T21:42:42.211Z,18.50
2018-08-09T21:45:12.488Z,17.77
2018-08-09T21:47:40.235Z,19.10
2018-08-09T21:50:10.865Z,20.00
2018-08-09T21:52:38.533Z,19.57
2018-08-09T21:55:06.553Z,17.50
2018-08-09T21:57:34.676Z,19.30
2018-08-09T22:00:04.933Z,17.80
2018-08-09T22:02:33.043Z,17.60
2018-08-09T22:07:47.637Z,18.85
2018-08-09T22:10:21.764Z,18.43
2018-08-09T22:12:54.952Z,16.97
2018-08-09T22:15:27.702Z,16.90
2018-08-09T22:18:00.789Z,16.50
2018-08-09T22:20:38.272Z,17.03
2018-08-09T22:23:05.791Z,16.10
2018-08-09T22:25:33.854Z,15.33
2018-08-09T22:28:01.289Z,15.47
2018-08-09T22:30:29.418Z,15.63
2018-08-09T22:32:56.810Z,14.83
2018-08-09T22:35:24.337Z,15.97
2018-08-09T22:37:51.793Z,17.20
2018-08-09T22:40:23.471Z,15.87
2018-08-09T22:42:50.908Z,16.17
2018-08-09T22:45:19.040Z,14.77
2018-08-09T22:47:47.510Z,15.07
2018-08-09T22:50:19.509Z,16.00
2018-08-09T22:52:47.319Z,14.90
2018-08-09T22:55:14.823Z,17.20
2018-08-09T22:57:42.199Z,17.00
2018-08-09T23:00:15.159Z,14.97
2018-08-09T23:02:42.680Z,15.20
2018-08-09T23:05:10.172Z,15.50
2018-08-09T23:07:37.681Z,15.60
2018-08-09T23:10:05.465Z,15.13
2018-08-09T23:12:32.839Z,17.03
2018-08-09T23:15:00.944Z,16.70
2018-08-09T23:17:28.636Z,21.33
2018-08-09T23:19:56.592Z,16.67
2018-08-09T23:22:24.658Z,16.63
2018-08-09T23:24:52.046Z,16.20
2018-08-09T23:27:22.769Z,16.47
2018-08-09T23:29:50.318Z,16.63
2018-08-09T23:32:17.851Z,16.33
2018-08-09T23:34:49.980Z,16.70
2018-08-09T23:37:17.487Z,17.00
2018-08-09T23:39:44.897Z,16.83
2018-08-09T23:42:12.439Z,18.00
2018-08-09T23:44:39.814Z,16.50
2018-08-09T23:47:07.944Z,18.00
2018-08-09T23:49:35.347Z,17.20
2018-08-09T23:52:02.717Z,18.30
2018-08-09T23:57:52.718Z,16.47
